sensor_id;sensor_type;location;lat;lon;timestamp;pressure;altitude;pressure_sealevel;temperature;humidity
61682;BME280;47577;43.610;25.010;2022-12-18T00:01:48;101241.63;;;4.51;84.58
61682;BME280;47577;43.610;25.010;2022-12-18T00:04:22;101243.34;;;4.43;84.04
61682;BME280;47577;43.610;25.010;2022-12-18T00:06:49;101251.22;;;4.39;85.06
61682;BME280;47577;43.610;25.010;2022-12-18T00:09:15;101258.25;;;4.37;85.78
61682;BME280;47577;43.610;25.010;2022-12-18T00:11:41;101254.69;;;4.32;85.61
61682;BME280;47577;43.610;25.010;2022-12-18T00:14:08;101260.88;;;4.34;85.74
61682;BME280;47577;43.610;25.010;2022-12-18T00:16:34;101257.38;;;4.40;86.25
61682;BME280;47577;43.610;25.010;2022-12-18T00:19:03;101265.22;;;4.35;85.68
61682;BME280;47577;43.610;25.010;2022-12-18T00:21:29;101267.03;;;4.41;85.03
61682;BME280;47577;43.610;25.010;2022-12-18T00:23:56;101255.59;;;4.34;85.36
61682;BME280;47577;43.610;25.010;2022-12-18T00:26:24;101271.41;;;4.44;84.80
61682;BME280;47577;43.610;25.010;2022-12-18T00:28:50;101285.47;;;4.41;84.24
61682;BME280;47577;43.610;25.010;2022-12-18T00:31:19;101284.59;;;4.44;85.44
61682;BME280;47577;43.610;25.010;2022-12-18T00:33:46;101295.13;;;4.44;85.69
61682;BME280;47577;43.610;25.010;2022-12-18T00:36:14;101330.25;;;4.41;85.13
61682;BME280;47577;43.610;25.010;2022-12-18T00:38:41;101329.41;;;4.50;85.04
61682;BME280;47577;43.610;25.010;2022-12-18T00:41:08;101333.75;;;4.45;84.79
61682;BME280;47577;43.610;25.010;2022-12-18T00:43:34;101350.47;;;4.51;82.74
61682;BME280;47577;43.610;25.010;2022-12-18T00:46:00;101325.03;;;4.47;83.65
61682;BME280;47577;43.610;25.010;2022-12-18T00:48:25;101362.88;;;4.62;83.98
61682;BME280;47577;43.610;25.010;2022-12-18T00:50:51;101363.78;;;4.71;82.96
61682;BME280;47577;43.610;25.010;2022-12-18T00:53:17;101371.69;;;4.76;82.98
61682;BME280;47577;43.610;25.010;2022-12-18T00:55:43;101370.75;;;4.65;83.61
61682;BME280;47577;43.610;25.010;2022-12-18T00:58:09;101386.56;;;4.60;83.17
61682;BME280;47577;43.610;25.010;2022-12-18T01:00:36;101380.34;;;4.55;83.11
61682;BME280;47577;43.610;25.010;2022-12-18T01:03:03;101384.78;;;4.59;82.86
61682;BME280;47577;43.610;25.010;2022-12-18T01:05:29;101383.78;;;4.43;82.98
61682;BME280;47577;43.610;25.010;2022-12-18T01:07:55;101394.38;;;4.51;82.84
61682;BME280;47577;43.610;25.010;2022-12-18T01:10:22;101394.47;;;4.62;82.86
61682;BME280;47577;43.610;25.010;2022-12-18T01:12:48;101403.13;;;4.48;83.04
61682;BME280;47577;43.610;25.010;2022-12-18T01:15:15;101409.31;;;4.52;83.04
61682;BME280;47577;43.610;25.010;2022-12-18T01:17:41;101400.47;;;4.44;83.15
61682;BME280;47577;43.610;25.010;2022-12-18T01:20:07;101401.41;;;4.49;83.54
61682;BME280;47577;43.610;25.010;2022-12-18T01:22:34;101416.34;;;4.54;82.84
61682;BME280;47577;43.610;25.010;2022-12-18T01:25:04;101421.75;;;4.70;82.23
61682;BME280;47577;43.610;25.010;2022-12-18T01:27:31;101419.88;;;4.56;81.60
61682;BME280;47577;43.610;25.010;2022-12-18T01:29:56;101416.41;;;4.59;81.28
61682;BME280;47577;43.610;25.010;2022-12-18T01:32:22;101412.81;;;4.49;82.48
61682;BME280;47577;43.610;25.010;2022-12-18T01:34:48;101432.25;;;4.67;80.86
61682;BME280;47577;43.610;25.010;2022-12-18T01:37:13;101438.38;;;4.64;81.93
61682;BME280;47577;43.610;25.010;2022-12-18T01:39:39;101444.41;;;4.46;82.56
61682;BME280;47577;43.610;25.010;2022-12-18T01:42:13;101444.28;;;4.34;82.93
61682;BME280;47577;43.610;25.010;2022-12-18T01:44:59;101442.66;;;4.51;82.32
61682;BME280;47577;43.610;25.010;2022-12-18T01:49:58;101448.84;;;4.55;81.67
61682;BME280;47577;43.610;25.010;2022-12-18T01:52:28;101440.91;;;4.49;81.19
61682;BME280;47577;43.610;25.010;2022-12-18T01:54:56;101454.03;;;4.44;81.04
61682;BME280;47577;43.610;25.010;2022-12-18T01:57:23;101448.75;;;4.41;81.89
61682;BME280;47577;43.610;25.010;2022-12-18T01:59:53;101453.09;;;4.36;81.74
61682;BME280;47577;43.610;25.010;2022-12-18T02:02:20;101446.00;;;4.30;81.89
61682;BME280;47577;43.610;25.010;2022-12-18T02:04:46;101444.00;;;4.03;83.27
61682;BME280;47577;43.610;25.010;2022-12-18T02:07:19;101458.16;;;4.14;83.42
61682;BME280;47577;43.610;25.010;2022-12-18T02:10:34;101459.94;;;4.17;82.58
61682;BME280;47577;43.610;25.010;2022-12-18T02:13:27;101455.56;;;4.19;82.79
61682;BME280;47577;43.610;25.010;2022-12-18T02:18:32;101465.19;;;4.14;81.80
61682;BME280;47577;43.610;25.010;2022-12-18T02:24:13;101463.25;;;3.97;80.66
61682;BME280;47577;43.610;25.010;2022-12-18T02:26:56;101456.22;;;3.96;80.48
61682;BME280;47577;43.610;25.010;2022-12-18T02:29:34;101472.91;;;4.00;80.75
61682;BME280;47577;43.610;25.010;2022-12-18T02:32:06;101479.84;;;3.92;80.11
61682;BME280;47577;43.610;25.010;2022-12-18T02:34:37;101473.88;;;4.05;80.01
61682;BME280;47577;43.610;25.010;2022-12-18T02:37:09;101481.81;;;4.08;79.89
61682;BME280;47577;43.610;25.010;2022-12-18T02:39:39;101483.47;;;4.03;79.35
61682;BME280;47577;43.610;25.010;2022-12-18T02:42:06;101474.59;;;3.92;79.63
61682;BME280;47577;43.610;25.010;2022-12-18T02:44:41;101470.94;;;3.79;79.45
61682;BME280;47577;43.610;25.010;2022-12-18T02:47:10;101471.91;;;3.87;79.75
61682;BME280;47577;43.610;25.010;2022-12-18T02:53:27;101476.97;;;3.69;80.04
61682;BME280;47577;43.610;25.010;2022-12-18T02:58:20;101487.56;;;3.75;79.36
61682;BME280;47577;43.610;25.010;2022-12-18T03:01:06;101477.81;;;3.64;78.39
61682;BME280;47577;43.610;25.010;2022-12-18T03:04:00;101485.66;;;3.60;79.65
61682;BME280;47577;43.610;25.010;2022-12-18T03:09:10;101471.38;;;3.41;79.66
61682;BME280;47577;43.610;25.010;2022-12-18T03:11:42;101486.31;;;3.43;79.54
61682;BME280;47577;43.610;25.010;2022-12-18T03:14:38;101495.91;;;3.41;78.90
61682;BME280;47577;43.610;25.010;2022-12-18T03:17:05;101502.09;;;3.43;78.82
61682;BME280;47577;43.610;25.010;2022-12-18T03:19:34;101496.97;;;3.56;79.29
61682;BME280;47577;43.610;25.010;2022-12-18T03:22:02;101495.16;;;3.48;78.85
61682;BME280;47577;43.610;25.010;2022-12-18T03:24:29;101508.28;;;3.47;79.30
61682;BME280;47577;43.610;25.010;2022-12-18T03:27:06;101520.41;;;3.37;79.12
61682;BME280;47577;43.610;25.010;2022-12-18T03:32:23;101518.72;;;3.41;79.55
61682;BME280;47577;43.610;25.010;2022-12-18T03:34:51;101515.97;;;3.33;80.44
61682;BME280;47577;43.610;25.010;2022-12-18T03:37:19;101524.75;;;3.35;79.95
61682;BME280;47577;43.610;25.010;2022-12-18T03:39:44;101507.19;;;3.31;80.01
61682;BME280;47577;43.610;25.010;2022-12-18T03:42:12;101520.44;;;3.39;80.01
61682;BME280;47577;43.610;25.010;2022-12-18T03:50:07;101547.50;;;3.32;80.10
61682;BME280;47577;43.610;25.010;2022-12-18T03:52:49;101564.25;;;3.40;79.64
61682;BME280;47577;43.610;25.010;2022-12-18T03:55:19;101562.50;;;3.39;79.20
61682;BME280;47577;43.610;25.010;2022-12-18T03:57:47;101577.47;;;3.44;80.31
61682;BME280;47577;43.610;25.010;2022-12-18T04:00:14;101605.59;;;3.48;79.03
61682;BME280;47577;43.610;25.010;2022-12-18T04:02:45;101595.97;;;3.49;79.53
61682;BME280;47577;43.610;25.010;2022-12-18T04:05:13;101596.88;;;3.53;80.07
61682;BME280;47577;43.610;25.010;2022-12-18T04:07:40;101601.44;;;3.66;79.17
61682;BME280;47577;43.610;25.010;2022-12-18T04:10:07;101602.38;;;3.70;78.93
61682;BME280;47577;43.610;25.010;2022-12-18T04:12:37;101594.41;;;3.63;78.52
61682;BME280;47577;43.610;25.010;2022-12-18T04:15:03;101602.13;;;3.51;79.90
61682;BME280;47577;43.610;25.010;2022-12-18T04:17:29;101610.16;;;3.62;78.27
61682;BME280;47577;43.610;25.010;2022-12-18T04:19:55;101616.38;;;3.69;78.45
61682;BME280;47577;43.610;25.010;2022-12-18T04:22:20;101630.63;;;3.83;78.71
61682;BME280;47577;43.610;25.010;2022-12-18T04:24:46;101622.38;;;3.57;78.63
61682;BME280;47577;43.610;25.010;2022-12-18T04:27:11;101639.06;;;3.60;78.34
61682;BME280;47577;43.610;25.010;2022-12-18T04:29:37;101624.13;;;3.58;78.64
61682;BME280;47577;43.610;25.010;2022-12-18T04:32:03;101644.28;;;3.57;78.49
61682;BME280;47577;43.610;25.010;2022-12-18T04:34:29;101645.28;;;3.65;78.43
61682;BME280;47577;43.610;25.010;2022-12-18T04:36:54;101641.00;;;3.72;77.73
61682;BME280;47577;43.610;25.010;2022-12-18T04:39:20;101649.75;;;3.71;78.93
61682;BME280;47577;43.610;25.010;2022-12-18T04:41:45;101659.44;;;3.74;77.98
61682;BME280;47577;43.610;25.010;2022-12-18T04:44:11;101650.44;;;3.59;78.56
61682;BME280;47577;43.610;25.010;2022-12-18T04:46:37;101648.75;;;3.61;78.34
61682;BME280;47577;43.610;25.010;2022-12-18T04:49:03;101655.81;;;3.65;79.22
61682;BME280;47577;43.610;25.010;2022-12-18T04:51:28;101645.13;;;3.56;79.16
61682;BME280;47577;43.610;25.010;2022-12-18T04:53:54;101659.34;;;3.67;78.43
61682;BME280;47577;43.610;25.010;2022-12-18T04:56:20;101678.69;;;3.71;78.55
61682;BME280;47577;43.610;25.010;2022-12-18T04:58:45;101683.34;;;3.33;79.60
61682;BME280;47577;43.610;25.010;2022-12-18T05:01:13;101680.97;;;3.50;79.06
61682;BME280;47577;43.610;25.010;2022-12-18T05:03:39;101684.38;;;3.42;78.34
61682;BME280;47577;43.610;25.010;2022-12-18T05:06:05;101696.91;;;3.59;78.43
61682;BME280;47577;43.610;25.010;2022-12-18T05:08:32;101710.06;;;3.59;78.16
61682;BME280;47577;43.610;25.010;2022-12-18T05:11:04;101717.13;;;3.61;77.33
61682;BME280;47577;43.610;25.010;2022-12-18T05:13:31;101712.84;;;3.68;78.18
61682;BME280;47577;43.610;25.010;2022-12-18T05:15:57;101705.84;;;3.70;77.70
61682;BME280;47577;43.610;25.010;2022-12-18T05:18:23;101722.66;;;3.80;77.13
61682;BME280;47577;43.610;25.010;2022-12-18T05:20:53;101715.78;;;3.88;76.85
61682;BME280;47577;43.610;25.010;2022-12-18T05:23:19;101705.34;;;3.94;75.47
61682;BME280;47577;43.610;25.010;2022-12-18T05:25:53;101708.00;;;3.96;75.99
61682;BME280;47577;43.610;25.010;2022-12-18T05:28:21;101711.16;;;3.73;76.21
61682;BME280;47577;43.610;25.010;2022-12-18T05:30:51;101706.47;;;3.52;77.59
61682;BME280;47577;43.610;25.010;2022-12-18T05:33:18;101714.59;;;3.69;77.52
61682;BME280;47577;43.610;25.010;2022-12-18T05:35:44;101704.72;;;3.54;76.96
61682;BME280;47577;43.610;25.010;2022-12-18T05:38:10;101730.34;;;3.67;77.62
61682;BME280;47577;43.610;25.010;2022-12-18T05:40:36;101731.22;;;3.65;77.91
61682;BME280;47577;43.610;25.010;2022-12-18T05:43:02;101743.38;;;3.58;77.85
61682;BME280;47577;43.610;25.010;2022-12-18T05:45:30;101738.00;;;3.51;77.71
61682;BME280;47577;43.610;25.010;2022-12-18T05:47:56;101750.25;;;3.48;78.23
61682;BME280;47577;43.610;25.010;2022-12-18T05:50:22;101742.97;;;3.35;78.19
61682;BME280;47577;43.610;25.010;2022-12-18T05:52:48;101746.66;;;3.43;77.39
61682;BME280;47577;43.610;25.010;2022-12-18T05:55:13;101756.44;;;3.52;77.11
61682;BME280;47577;43.610;25.010;2022-12-18T05:57:39;101728.81;;;3.27;78.14
61682;BME280;47577;43.610;25.010;2022-12-18T06:00:05;101745.72;;;3.41;78.27
61682;BME280;47577;43.610;25.010;2022-12-18T06:02:31;101746.66;;;3.45;78.89
61682;BME280;47577;43.610;25.010;2022-12-18T06:04:57;101760.88;;;3.58;78.82
61682;BME280;47577;43.610;25.010;2022-12-18T06:07:23;101770.59;;;3.60;80.07
61682;BME280;47577;43.610;25.010;2022-12-18T06:09:48;101769.94;;;3.75;79.36
61682;BME280;47577;43.610;25.010;2022-12-18T06:12:14;101785.25;;;4.01;78.75
61682;BME280;47577;43.610;25.010;2022-12-18T06:14:40;101787.28;;;4.19;77.83
61682;BME280;47577;43.610;25.010;2022-12-18T06:17:06;101798.03;;;4.33;76.62
61682;BME280;47577;43.610;25.010;2022-12-18T06:19:31;101789.41;;;4.45;76.56
61682;BME280;47577;43.610;25.010;2022-12-18T06:21:57;101800.13;;;4.58;76.69
61682;BME280;47577;43.610;25.010;2022-12-18T06:24:24;101809.84;;;4.63;75.76
61682;BME280;47577;43.610;25.010;2022-12-18T06:26:49;101815.84;;;4.51;75.60
61682;BME280;47577;43.610;25.010;2022-12-18T06:29:15;101821.56;;;4.22;75.75
61682;BME280;47577;43.610;25.010;2022-12-18T06:31:41;101825.47;;;4.49;77.07
61682;BME280;47577;43.610;25.010;2022-12-18T06:34:06;101819.34;;;4.51;75.42
61682;BME280;47577;43.610;25.010;2022-12-18T06:36:32;101846.69;;;4.61;75.92
61682;BME280;47577;43.610;25.010;2022-12-18T06:38:58;101842.31;;;4.63;74.92
61682;BME280;47577;43.610;25.010;2022-12-18T06:41:24;101843.34;;;4.74;76.96
61682;BME280;47577;43.610;25.010;2022-12-18T06:43:49;101859.16;;;4.74;76.93
61682;BME280;47577;43.610;25.010;2022-12-18T06:46:15;101858.38;;;4.80;77.09
61682;BME280;47577;43.610;25.010;2022-12-18T06:48:42;101866.34;;;4.85;76.93
61682;BME280;47577;43.610;25.010;2022-12-18T06:51:08;101871.66;;;4.86;76.23
61682;BME280;47577;43.610;25.010;2022-12-18T06:53:33;101857.59;;;4.87;75.51
61682;BME280;47577;43.610;25.010;2022-12-18T06:56:04;101865.44;;;4.84;75.27
61682;BME280;47577;43.610;25.010;2022-12-18T06:58:30;101864.59;;;4.85;75.29
61682;BME280;47577;43.610;25.010;2022-12-18T07:01:02;101864.56;;;4.82;74.99
61682;BME280;47577;43.610;25.010;2022-12-18T07:03:28;101877.47;;;4.62;74.03
61682;BME280;47577;43.610;25.010;2022-12-18T07:05:54;101882.56;;;4.51;75.18
61682;BME280;47577;43.610;25.010;2022-12-18T07:08:20;101886.63;;;4.31;76.55
61682;BME280;47577;43.610;25.010;2022-12-18T07:10:46;101890.31;;;4.42;76.51
61682;BME280;47577;43.610;25.010;2022-12-18T07:13:11;101894.84;;;4.49;75.06
61682;BME280;47577;43.610;25.010;2022-12-18T07:15:37;101878.09;;;4.44;74.77
61682;BME280;47577;43.610;25.010;2022-12-18T07:18:03;101878.06;;;4.43;73.73
61682;BME280;47577;43.610;25.010;2022-12-18T07:20:28;101890.44;;;4.50;74.07
61682;BME280;47577;43.610;25.010;2022-12-18T07:22:54;101889.31;;;4.34;75.76
61682;BME280;47577;43.610;25.010;2022-12-18T07:25:20;101884.81;;;4.25;75.88
61682;BME280;47577;43.610;25.010;2022-12-18T07:27:45;101885.84;;;4.35;75.63
61682;BME280;47577;43.610;25.010;2022-12-18T07:30:11;101900.09;;;4.48;75.06
61682;BME280;47577;43.610;25.010;2022-12-18T07:32:37;101898.16;;;4.36;75.05
61682;BME280;47577;43.610;25.010;2022-12-18T07:35:03;101904.31;;;4.38;75.10
61682;BME280;47577;43.610;25.010;2022-12-18T07:37:29;101913.22;;;4.46;75.62
61682;BME280;47577;43.610;25.010;2022-12-18T07:39:54;101924.63;;;4.47;76.94
61682;BME280;47577;43.610;25.010;2022-12-18T07:42:21;101922.13;;;4.54;74.47
61682;BME280;47577;43.610;25.010;2022-12-18T07:44:55;101919.38;;;4.47;74.34
61682;BME280;47577;43.610;25.010;2022-12-18T07:47:21;101924.72;;;4.51;74.13
61682;BME280;47577;43.610;25.010;2022-12-18T07:49:47;101909.84;;;4.55;75.10
61682;BME280;47577;43.610;25.010;2022-12-18T07:52:12;101911.84;;;4.71;73.08
61682;BME280;47577;43.610;25.010;2022-12-18T07:54:38;101915.72;;;4.38;74.46
61682;BME280;47577;43.610;25.010;2022-12-18T07:57:05;101915.16;;;4.58;74.77
61682;BME280;47577;43.610;25.010;2022-12-18T07:59:31;101922.25;;;4.62;73.42
61682;BME280;47577;43.610;25.010;2022-12-18T08:01:57;101915.28;;;4.66;73.19
61682;BME280;47577;43.610;25.010;2022-12-18T08:04:24;101925.88;;;4.69;73.17
61682;BME280;47577;43.610;25.010;2022-12-18T08:06:50;101927.59;;;4.67;72.49
61682;BME280;47577;43.610;25.010;2022-12-18T08:09:15;101933.91;;;4.78;72.69
61682;BME280;47577;43.610;25.010;2022-12-18T08:11:41;101942.63;;;4.74;71.37
61682;BME280;47577;43.610;25.010;2022-12-18T08:14:07;101951.41;;;4.74;73.69
61682;BME280;47577;43.610;25.010;2022-12-18T08:16:32;101959.94;;;4.58;72.06
61682;BME280;47577;43.610;25.010;2022-12-18T08:18:58;101973.00;;;4.50;72.16
61682;BME280;47577;43.610;25.010;2022-12-18T08:21:26;101948.38;;;4.48;71.57
61682;BME280;47577;43.610;25.010;2022-12-18T08:23:53;101967.06;;;4.64;72.32
61682;BME280;47577;43.610;25.010;2022-12-18T08:26:21;101966.06;;;4.55;71.32
61682;BME280;47577;43.610;25.010;2022-12-18T08:28:47;101957.13;;;4.46;71.17
61682;BME280;47577;43.610;25.010;2022-12-18T08:31:13;101954.44;;;4.43;71.81
61682;BME280;47577;43.610;25.010;2022-12-18T08:33:40;101960.41;;;4.32;70.97
61682;BME280;47577;43.610;25.010;2022-12-18T08:36:06;101974.91;;;4.59;70.88
61682;BME280;47577;43.610;25.010;2022-12-18T08:38:33;101971.13;;;4.43;70.02
61682;BME280;47577;43.610;25.010;2022-12-18T08:40:59;101997.31;;;4.35;69.99
61682;BME280;47577;43.610;25.010;2022-12-18T08:43:25;101963.00;;;4.31;70.87
61682;BME280;47577;43.610;25.010;2022-12-18T08:46:11;101982.56;;;4.45;69.56
61682;BME280;47577;43.610;25.010;2022-12-18T08:48:37;101981.53;;;4.37;70.55
61682;BME280;47577;43.610;25.010;2022-12-18T08:51:03;101979.75;;;4.33;71.53
61682;BME280;47577;43.610;25.010;2022-12-18T08:53:29;101975.75;;;4.58;71.17
61682;BME280;47577;43.610;25.010;2022-12-18T08:55:56;101984.56;;;4.58;69.58
61682;BME280;47577;43.610;25.010;2022-12-18T08:58:22;101975.84;;;4.64;71.33
61682;BME280;47577;43.610;25.010;2022-12-18T09:00:48;101977.72;;;4.73;69.41
61682;BME280;47577;43.610;25.010;2022-12-18T09:03:18;101987.06;;;4.51;70.01
61682;BME280;47577;43.610;25.010;2022-12-18T09:05:45;101981.53;;;4.37;70.55
61682;BME280;47577;43.610;25.010;2022-12-18T09:08:11;101980.16;;;4.59;69.95
61682;BME280;47577;43.610;25.010;2022-12-18T09:10:45;102002.22;;;4.66;70.03
61682;BME280;47577;43.610;25.010;2022-12-18T09:13:11;101997.78;;;4.62;71.28
61682;BME280;47577;43.610;25.010;2022-12-18T09:15:51;101982.91;;;4.65;71.09
61682;BME280;47577;43.610;25.010;2022-12-18T09:18:19;101981.50;;;4.89;71.13
61682;BME280;47577;43.610;25.010;2022-12-18T09:20:46;101983.00;;;4.71;70.53
61682;BME280;47577;43.610;25.010;2022-12-18T09:23:12;101985.09;;;4.95;71.09
61682;BME280;47577;43.610;25.010;2022-12-18T09:25:38;101987.66;;;4.88;70.54
61682;BME280;47577;43.610;25.010;2022-12-18T09:28:14;101982.38;;;4.88;69.63
61682;BME280;47577;43.610;25.010;2022-12-18T09:30:43;101966.59;;;4.91;70.74
61682;BME280;47577;43.610;25.010;2022-12-18T09:33:09;101988.75;;;5.04;70.20
61682;BME280;47577;43.610;25.010;2022-12-18T09:35:39;101971.84;;;4.89;68.72
61682;BME280;47577;43.610;25.010;2022-12-18T09:38:05;101981.50;;;4.90;69.51
61682;BME280;47577;43.610;25.010;2022-12-18T09:40:44;101976.72;;;4.65;69.67
61682;BME280;47577;43.610;25.010;2022-12-18T09:43:22;101988.09;;;4.61;69.79
61682;BME280;47577;43.610;25.010;2022-12-18T09:46:05;101982.16;;;4.74;70.28
61682;BME280;47577;43.610;25.010;2022-12-18T09:48:38;101959.78;;;4.47;69.84
61682;BME280;47577;43.610;25.010;2022-12-18T09:51:12;101972.25;;;4.59;70.45
61682;BME280;47577;43.610;25.010;2022-12-18T09:53:41;101973.25;;;4.66;70.61
61682;BME280;47577;43.610;25.010;2022-12-18T09:56:17;101959.59;;;4.93;70.69
61682;BME280;47577;43.610;25.010;2022-12-18T09:58:57;101980.09;;;5.14;69.66
61682;BME280;47577;43.610;25.010;2022-12-18T10:01:24;101975.56;;;5.02;68.54
61682;BME280;47577;43.610;25.010;2022-12-18T10:03:52;101982.00;;;5.24;68.65
61682;BME280;47577;43.610;25.010;2022-12-18T10:06:27;101981.19;;;5.28;69.16
61682;BME280;47577;43.610;25.010;2022-12-18T10:09:21;101976.16;;;5.50;68.00
61682;BME280;47577;43.610;25.010;2022-12-18T10:12:06;101985.81;;;5.48;67.80
61682;BME280;47577;43.610;25.010;2022-12-18T10:14:51;101981.84;;;5.12;67.48
61682;BME280;47577;43.610;25.010;2022-12-18T10:20:02;101969.47;;;5.08;67.55
61682;BME280;47577;43.610;25.010;2022-12-18T10:22:57;101980.31;;;5.31;68.96
61682;BME280;47577;43.610;25.010;2022-12-18T10:25:55;101984.31;;;5.68;67.03
61682;BME280;47577;43.610;25.010;2022-12-18T10:28:20;101988.78;;;5.74;66.67
61682;BME280;47577;43.610;25.010;2022-12-18T10:30:47;101992.19;;;5.65;67.32
61682;BME280;47577;43.610;25.010;2022-12-18T10:33:21;101986.81;;;5.58;67.21
61682;BME280;47577;43.610;25.010;2022-12-18T10:35:50;101992.13;;;5.61;67.78
61682;BME280;47577;43.610;25.010;2022-12-18T10:41:01;101995.88;;;5.78;64.19
61682;BME280;47577;43.610;25.010;2022-12-18T10:43:38;102001.75;;;5.56;67.86
61682;BME280;47577;43.610;25.010;2022-12-18T10:51:06;101978.94;;;5.59;66.31
61682;BME280;47577;43.610;25.010;2022-12-18T10:53:34;101985.94;;;5.59;67.03
61682;BME280;47577;43.610;25.010;2022-12-18T10:56:00;101982.41;;;5.58;64.95
61682;BME280;47577;43.610;25.010;2022-12-18T10:58:30;101993.00;;;5.61;66.24
61682;BME280;47577;43.610;25.010;2022-12-18T11:01:11;101987.59;;;5.50;64.58
61682;BME280;47577;43.610;25.010;2022-12-18T11:03:41;101976.34;;;5.64;65.47
61682;BME280;47577;43.610;25.010;2022-12-18T11:06:13;101982.38;;;5.55;64.90
61682;BME280;47577;43.610;25.010;2022-12-18T11:08:40;101977.66;;;5.29;66.57
61682;BME280;47577;43.610;25.010;2022-12-18T11:11:20;101984.63;;;5.24;66.60
61682;BME280;47577;43.610;25.010;2022-12-18T11:14:03;101982.22;;;5.41;65.56
61682;BME280;47577;43.610;25.010;2022-12-18T11:16:36;101978.69;;;5.42;65.12
61682;BME280;47577;43.610;25.010;2022-12-18T11:19:37;101992.38;;;5.10;66.55
61682;BME280;47577;43.610;25.010;2022-12-18T11:22:28;101991.19;;;4.91;66.74
61682;BME280;47577;43.610;25.010;2022-12-18T11:25:02;101995.06;;;5.15;67.95
61682;BME280;47577;43.610;25.010;2022-12-18T11:27:29;101995.09;;;5.20;67.21
61682;BME280;47577;43.610;25.010;2022-12-18T11:33:00;101996.75;;;5.11;66.08
61682;BME280;47577;43.610;25.010;2022-12-18T11:35:42;102004.84;;;5.24;67.77
61682;BME280;47577;43.610;25.010;2022-12-18T11:40:44;102009.91;;;5.10;65.39
61682;BME280;47577;43.610;25.010;2022-12-18T11:43:42;102019.72;;;5.19;66.22
61682;BME280;47577;43.610;25.010;2022-12-18T11:46:14;102011.66;;;5.08;65.96
61682;BME280;47577;43.610;25.010;2022-12-18T11:51:49;102015.31;;;5.19;67.09
61682;BME280;47577;43.610;25.010;2022-12-18T11:54:16;102010.88;;;5.17;65.79
61682;BME280;47577;43.610;25.010;2022-12-18T12:10:32;102007.44;;;5.21;65.28
61682;BME280;47577;43.610;25.010;2022-12-18T12:13:48;102009.31;;;5.31;64.99
61682;BME280;47577;43.610;25.010;2022-12-18T12:22:11;102025.50;;;5.59;65.00
61682;BME280;47577;43.610;25.010;2022-12-18T12:30:58;102021.69;;;5.34;65.53
61682;BME280;47577;43.610;25.010;2022-12-18T12:33:52;102026.09;;;5.35;64.49
61682;BME280;47577;43.610;25.010;2022-12-18T12:39:28;102024.09;;;5.15;64.76
61682;BME280;47577;43.610;25.010;2022-12-18T12:41:56;102015.31;;;5.18;64.66
61682;BME280;47577;43.610;25.010;2022-12-18T12:45:07;102020.75;;;5.28;64.95
61682;BME280;47577;43.610;25.010;2022-12-18T12:47:42;102039.81;;;5.10;64.81
61682;BME280;47577;43.610;25.010;2022-12-18T12:50:16;102038.09;;;5.12;65.59
61682;BME280;47577;43.610;25.010;2022-12-18T12:52:51;102044.47;;;5.28;65.64
61682;BME280;47577;43.610;25.010;2022-12-18T12:55:21;102056.06;;;5.40;64.40
61682;BME280;47577;43.610;25.010;2022-12-18T12:58:14;102042.53;;;5.17;65.02
61682;BME280;47577;43.610;25.010;2022-12-18T13:00:46;102055.19;;;5.41;64.99
61682;BME280;47577;43.610;25.010;2022-12-18T13:03:35;102051.47;;;5.28;65.47
61682;BME280;47577;43.610;25.010;2022-12-18T13:06:30;102053.25;;;5.27;63.77
61682;BME280;47577;43.610;25.010;2022-12-18T13:09:00;102059.88;;;4.99;64.68
61682;BME280;47577;43.610;25.010;2022-12-18T13:14:31;102056.28;;;4.94;65.00
61682;BME280;47577;43.610;25.010;2022-12-18T13:17:30;102059.78;;;4.93;65.18
61682;BME280;47577;43.610;25.010;2022-12-18T13:20:12;102071.53;;;5.13;65.26
61682;BME280;47577;43.610;25.010;2022-12-18T13:22:46;102074.25;;;5.21;65.03
61682;BME280;47577;43.610;25.010;2022-12-18T13:25:42;102078.06;;;4.84;65.14
61682;BME280;47577;43.610;25.010;2022-12-18T13:28:13;102081.88;;;5.01;65.12
61682;BME280;47577;43.610;25.010;2022-12-18T13:43:47;102096.09;;;5.12;64.19
61682;BME280;47577;43.610;25.010;2022-12-18T13:46:42;102105.91;;;5.21;63.99
61682;BME280;47577;43.610;25.010;2022-12-18T13:51:41;102117.53;;;4.81;65.65
61682;BME280;47577;43.610;25.010;2022-12-18T13:54:21;102126.50;;;4.92;65.85
61682;BME280;47577;43.610;25.010;2022-12-18T13:56:50;102121.41;;;5.01;65.44
61682;BME280;47577;43.610;25.010;2022-12-18T13:59:53;102135.69;;;5.14;65.13
61682;BME280;47577;43.610;25.010;2022-12-18T14:02:15;102141.56;;;4.98;65.09
61682;BME280;47577;43.610;25.010;2022-12-18T14:04:45;102127.47;;;4.97;65.70
61682;BME280;47577;43.610;25.010;2022-12-18T14:07:17;102126.25;;;4.75;64.78
61682;BME280;47577;43.610;25.010;2022-12-18T14:09:49;102143.66;;;4.67;66.57
61682;BME280;47577;43.610;25.010;2022-12-18T14:18:21;102152.69;;;4.34;66.02
61682;BME280;47577;43.610;25.010;2022-12-18T14:20:50;102151.53;;;4.21;66.32
61682;BME280;47577;43.610;25.010;2022-12-18T14:25:55;102148.72;;;4.10;66.52
61682;BME280;47577;43.610;25.010;2022-12-18T14:28:21;102168.56;;;3.94;67.18
61682;BME280;47577;43.610;25.010;2022-12-18T14:30:48;102165.16;;;4.00;67.12
61682;BME280;47577;43.610;25.010;2022-12-18T14:33:19;102165.91;;;3.94;67.32
61682;BME280;47577;43.610;25.010;2022-12-18T14:36:13;102157.75;;;3.82;69.29
61682;BME280;47577;43.610;25.010;2022-12-18T14:38:41;102161.84;;;4.09;68.16
61682;BME280;47577;43.610;25.010;2022-12-18T14:43:38;102169.66;;;4.06;67.87
61682;BME280;47577;43.610;25.010;2022-12-18T14:46:06;102166.09;;;4.02;68.39
61682;BME280;47577;43.610;25.010;2022-12-18T14:48:50;102169.25;;;3.86;68.35
61682;BME280;47577;43.610;25.010;2022-12-18T14:51:24;102168.34;;;3.85;68.95